This is the latest recevied weather packets stored in our database for station/object KB3GVC-13. If no packets are shown the sender has not sent any weather packets the latest 10 day(s).
| Time | Temp. | Humidity | Pressure | Rain* | Wind** | Luminosity | Snow |
|---|---|---|---|---|---|---|---|
| 1777566896 | 17.22° C | 66% | 1009.1 hPa | 0 mm | - | - | - |
| 1777563556 | 15° C | 76% | 1009.6 hPa | 0 mm | - | - | - |
| 1777563255 | 14.44° C | 75% | 1009.6 hPa | 0 mm | - | - | - |
| 1777562952 | 15° C | 76% | 1009.6 hPa | 0 mm | - | - | - |
| 1777562648 | 15° C | 76% | 1009.6 hPa | 0 mm | - | - | - |
| 1777562348 | 15° C | 78% | 1009.6 hPa | 0 mm | - | - | - |
| 1777561741 | 14.44° C | 78% | 1010 hPa | 0 mm | - | - | - |
| 1777560827 | 13.89° C | 82% | 1010.1 hPa | 0 mm | - | - | - |
| 1777555974 | 13.33° C | 88% | 1009.1 hPa | 0 mm | - | - | - |
| 1777554457 | 12.78° C | 92% | 1008.6 hPa | 0 mm | - | - | - |
| 1777552939 | 12.22° C | 97% | 1009 hPa | 0 mm | - | - | - |
| 1777551730 | 11.67° C | 98% | 1009 hPa | 0 mm | - | - | - |
| 1777551124 | 11.67° C | 99% | 1008.8 hPa | 0 mm | - | - | - |
| 1777550517 | 11.67° C | 99% | 1009.1 hPa | 0 mm | - | - | - |
| 1777549606 | 11.11° C | 99% | 1009.3 hPa | 0 mm | - | - | - |
| 1777548393 | 10.56° C | 99% | 1009 hPa | 0 mm | - | - | - |
| 1777548090 | 10.56° C | 99% | 1009 hPa | 0 mm | - | - | - |
| 1777547482 | 10° C | 99% | 1009 hPa | 0 mm | - | - | - |
| 1777546270 | 10° C | 99% | 1008.9 hPa | 0 mm | - | - | - |
| 1777545967 | 10° C | 99% | 1009 hPa | 0 mm | - | - | - |
| 1777545360 | 10° C | 99% | 1009 hPa | 0 mm | - | - | - |
| 1777545057 | 10° C | 99% | 1008.6 hPa | 0 mm | - | - | - |
| 1777544754 | 10° C | 99% | 1008.8 hPa | 0 mm | - | - | - |
| 1777544455 | 10° C | 99% | 1008.7 hPa | 0 mm | - | - | - |
| 1777544151 | 10° C | 99% | 1008.8 hPa | 0 mm | - | - | - |
* Rain latest hour (hover to see other rain measurements)
** Current wind speed in m/s (hover to see current wind gust speed)